createdAt,value
2022-10-11T00:00:09.918Z,99.90
2022-10-11T00:02:36.665Z,99.90
2022-10-11T00:05:04.080Z,99.90
2022-10-11T00:07:30.902Z,99.90
2022-10-11T00:09:57.706Z,99.90
2022-10-11T00:12:24.458Z,99.90
2022-10-11T00:14:51.343Z,99.90
2022-10-11T00:17:18.156Z,99.90
2022-10-11T00:19:45.000Z,99.90
2022-10-11T00:22:11.981Z,99.90
2022-10-11T00:24:38.757Z,99.90
2022-10-11T00:27:05.522Z,99.90
2022-10-11T00:29:32.314Z,99.90
2022-10-11T00:31:59.066Z,99.90
2022-10-11T00:34:25.964Z,99.90
2022-10-11T00:36:52.763Z,99.90
2022-10-11T00:39:19.655Z,99.90
2022-10-11T00:41:47.849Z,99.90
2022-10-11T00:44:24.402Z,99.90
2022-10-11T00:46:56.475Z,99.90
2022-10-11T00:49:32.426Z,99.90
2022-10-11T00:52:03.136Z,99.90
2022-10-11T00:54:33.753Z,99.90
2022-10-11T00:57:05.488Z,99.90
2022-10-11T00:59:39.784Z,99.90
2022-10-11T01:02:08.757Z,99.90
2022-10-11T01:04:35.764Z,99.90
2022-10-11T01:07:03.249Z,99.90
2022-10-11T01:09:30.757Z,99.90
2022-10-11T01:12:01.226Z,99.90
2022-10-11T01:14:37.957Z,99.90
2022-10-11T01:17:16.152Z,99.90
2022-10-11T01:20:15.898Z,99.90
2022-10-11T01:23:20.379Z,99.90
2022-10-11T01:26:28.664Z,99.90
2022-10-11T01:29:08.612Z,99.90
2022-10-11T01:32:01.524Z,99.90
2022-10-11T01:35:01.255Z,99.90
2022-10-11T01:37:35.339Z,99.90
2022-10-11T01:40:22.440Z,99.90
2022-10-11T01:42:50.140Z,99.90
2022-10-11T01:45:18.726Z,99.90
2022-10-11T01:47:46.174Z,99.90
2022-10-11T01:50:40.253Z,99.90
2022-10-11T01:53:18.293Z,99.90
2022-10-11T01:56:10.963Z,99.90
2022-10-11T01:58:56.520Z,99.90
2022-10-11T02:01:42.025Z,99.90
2022-10-11T02:04:28.419Z,99.90
2022-10-11T02:07:09.096Z,99.90
2022-10-11T02:09:41.652Z,99.90
2022-10-11T02:12:12.349Z,99.90
2022-10-11T02:14:47.512Z,99.90
2022-10-11T02:17:18.393Z,99.90
2022-10-11T02:19:50.289Z,99.90
2022-10-11T02:22:27.481Z,99.90
2022-10-11T02:24:57.857Z,99.90
2022-10-11T02:27:29.948Z,99.90
2022-10-11T02:29:59.760Z,99.90
2022-10-11T02:32:27.704Z,99.90
2022-10-11T02:34:56.865Z,99.90
2022-10-11T02:37:51.586Z,99.90
2022-10-11T02:40:33.417Z,99.90
2022-10-11T02:43:05.176Z,99.90
2022-10-11T02:45:37.283Z,99.90
2022-10-11T02:48:06.180Z,99.90
2022-10-11T02:50:33.096Z,99.90
2022-10-11T02:52:59.895Z,99.90
2022-10-11T02:55:26.639Z,99.90
2022-10-11T02:57:53.388Z,99.90
2022-10-11T03:00:20.236Z,99.90
2022-10-11T03:02:47.192Z,99.90
2022-10-11T03:05:14.226Z,99.90
2022-10-11T03:07:41.033Z,99.90
2022-10-11T03:10:08.764Z,99.90
2022-10-11T03:12:36.308Z,99.90
2022-10-11T03:15:03.567Z,99.90
2022-10-11T03:17:37.717Z,99.90
2022-10-11T03:20:06.462Z,99.90
2022-10-11T03:22:33.257Z,99.90
2022-10-11T03:25:04.060Z,99.90
2022-10-11T03:27:32.963Z,99.90
2022-10-11T03:30:00.626Z,99.90
2022-10-11T03:32:28.070Z,99.90
2022-10-11T03:34:54.931Z,99.90
2022-10-11T03:37:21.940Z,99.90
2022-10-11T03:39:48.982Z,99.90
2022-10-11T03:42:15.815Z,99.90
2022-10-11T03:44:42.680Z,99.90
2022-10-11T03:47:10.566Z,99.90
2022-10-11T03:49:42.603Z,99.90
2022-10-11T03:52:11.380Z,99.90
2022-10-11T03:54:38.143Z,99.90
2022-10-11T03:57:04.952Z,99.90
2022-10-11T03:59:31.986Z,99.90
2022-10-11T04:01:59.267Z,99.90
2022-10-11T04:04:26.203Z,99.90
2022-10-11T04:06:53.528Z,99.90
2022-10-11T04:09:20.408Z,99.90
2022-10-11T04:11:47.153Z,99.90
2022-10-11T04:14:13.956Z,99.90
2022-10-11T04:16:41.192Z,99.90
2022-10-11T04:19:08.052Z,99.90
2022-10-11T04:21:34.961Z,99.90
2022-10-11T04:24:01.775Z,99.90
2022-10-11T04:26:28.575Z,99.90
2022-10-11T04:28:56.670Z,99.90
2022-10-11T04:31:23.949Z,99.90
2022-10-11T04:33:50.809Z,99.90
2022-10-11T04:36:17.660Z,99.90
2022-10-11T04:38:44.432Z,99.90
2022-10-11T04:41:13.603Z,99.90
2022-10-11T04:43:40.429Z,99.90
2022-10-11T04:46:07.971Z,99.90
2022-10-11T04:48:35.086Z,99.90
2022-10-11T04:51:01.914Z,99.90
2022-10-11T04:53:28.744Z,99.90
2022-10-11T04:56:07.618Z,99.90
2022-10-11T04:58:35.372Z,99.90
2022-10-11T05:01:02.490Z,99.90
2022-10-11T05:03:30.206Z,99.90
2022-10-11T05:05:56.958Z,99.90
2022-10-11T05:08:24.371Z,99.90
2022-10-11T05:11:03.971Z,99.90
2022-10-11T05:13:32.133Z,99.90
2022-10-11T05:15:59.272Z,99.90
2022-10-11T05:18:26.140Z,99.90
2022-10-11T05:21:04.885Z,99.90
2022-10-11T05:23:33.298Z,99.90
2022-10-11T05:26:01.049Z,99.90
2022-10-11T05:28:28.113Z,99.90
2022-10-11T05:30:55.483Z,99.90
2022-10-11T05:33:22.440Z,99.90
2022-10-11T05:35:49.253Z,99.90
2022-10-11T05:38:16.485Z,99.90
2022-10-11T05:40:43.340Z,99.90
2022-10-11T05:43:10.347Z,99.90
2022-10-11T05:45:38.781Z,99.90
2022-10-11T05:48:06.108Z,99.90
2022-10-11T05:50:33.120Z,99.90
2022-10-11T05:52:59.989Z,99.90
2022-10-11T05:55:26.855Z,99.90
2022-10-11T05:57:57.399Z,99.90
2022-10-11T06:00:24.708Z,99.90
2022-10-11T06:02:51.496Z,99.90
2022-10-11T06:05:18.348Z,99.90
2022-10-11T06:07:45.275Z,99.90
2022-10-11T06:10:12.648Z,99.90
2022-10-11T06:12:39.482Z,99.90
2022-10-11T06:15:07.478Z,99.90
2022-10-11T06:17:35.102Z,99.90
2022-10-11T06:20:02.759Z,99.90
2022-10-11T06:22:29.757Z,99.90
2022-10-11T06:24:57.256Z,99.90
2022-10-11T06:27:24.093Z,99.90
2022-10-11T06:29:50.918Z,99.90
2022-10-11T06:32:17.820Z,99.90
2022-10-11T06:34:44.645Z,99.90
2022-10-11T06:37:11.532Z,99.90
2022-10-11T06:39:38.825Z,99.90
2022-10-11T06:42:05.658Z,99.90
2022-10-11T06:44:32.484Z,99.90
2022-10-11T06:46:59.260Z,99.90
2022-10-11T06:49:26.036Z,99.90
2022-10-11T06:51:53.628Z,99.90
2022-10-11T06:54:20.457Z,99.90
2022-10-11T06:56:47.212Z,99.90
2022-10-11T06:59:15.172Z,99.90
2022-10-11T07:01:42.939Z,99.90
2022-10-11T07:04:09.949Z,99.90
2022-10-11T07:06:39.006Z,99.90
2022-10-11T07:09:07.140Z,99.90
2022-10-11T07:11:34.543Z,99.90
2022-10-11T07:14:05.758Z,99.90
2022-10-11T07:16:33.509Z,99.90
2022-10-11T07:19:01.963Z,99.90
2022-10-11T07:21:30.274Z,99.90
2022-10-11T07:23:57.162Z,99.90
2022-10-11T07:26:25.013Z,99.90
2022-10-11T07:28:52.698Z,99.90
2022-10-11T07:31:24.147Z,99.90
2022-10-11T07:34:06.526Z,99.90
2022-10-11T07:36:33.390Z,99.90
2022-10-11T07:39:00.499Z,99.90
2022-10-11T07:41:27.335Z,99.90
2022-10-11T07:43:55.047Z,99.90
2022-10-11T07:46:23.188Z,99.90
2022-10-11T07:48:50.426Z,99.90
2022-10-11T07:51:22.278Z,99.90
2022-10-11T07:53:51.916Z,99.90
2022-10-11T07:56:21.429Z,99.90
2022-10-11T07:58:53.889Z,99.90
2022-10-11T08:01:21.304Z,99.90
2022-10-11T08:03:48.921Z,99.90
2022-10-11T08:06:18.544Z,99.90
2022-10-11T08:08:45.600Z,99.90
2022-10-11T08:11:21.699Z,99.90
2022-10-11T08:13:48.479Z,99.90
2022-10-11T08:16:15.712Z,99.90
2022-10-11T08:18:42.574Z,99.90
2022-10-11T08:21:11.512Z,99.90
2022-10-11T08:23:38.811Z,99.90
2022-10-11T08:26:06.634Z,99.90
2022-10-11T08:28:34.093Z,99.90
2022-10-11T08:31:01.921Z,99.90
2022-10-11T08:33:28.782Z,99.90
2022-10-11T08:35:57.235Z,99.90
2022-10-11T08:38:24.528Z,99.90
2022-10-11T08:40:57.860Z,99.90
2022-10-11T08:43:42.724Z,99.90
2022-10-11T08:46:11.047Z,99.90
2022-10-11T08:48:43.694Z,99.90
2022-10-11T08:51:35.506Z,99.90
2022-10-11T08:54:23.203Z,99.90
2022-10-11T08:56:50.969Z,99.90
2022-10-11T08:59:35.845Z,99.90
2022-10-11T09:02:38.955Z,99.90
2022-10-11T09:05:16.834Z,99.90
2022-10-11T09:08:24.550Z,99.90
2022-10-11T09:11:26.633Z,99.90
2022-10-11T09:14:27.171Z,99.90
2022-10-11T09:17:27.252Z,99.90
2022-10-11T09:19:57.063Z,99.90
2022-10-11T09:22:43.362Z,99.90
2022-10-11T09:25:23.190Z,99.90
2022-10-11T09:28:02.815Z,99.90
2022-10-11T09:30:31.402Z,99.90
2022-10-11T09:33:10.387Z,99.90
2022-10-11T09:35:42.368Z,99.90
2022-10-11T09:38:32.411Z,99.90
2022-10-11T09:41:04.055Z,99.90
2022-10-11T09:43:31.329Z,99.90
2022-10-11T09:45:58.474Z,99.90
2022-10-11T09:48:30.825Z,99.90
2022-10-11T09:51:05.076Z,99.90
2022-10-11T09:53:51.902Z,99.90
2022-10-11T09:56:18.860Z,99.90
2022-10-11T09:58:45.698Z,99.90
2022-10-11T10:01:23.891Z,99.90
2022-10-11T10:04:07.690Z,99.90
2022-10-11T10:06:35.019Z,99.90
2022-10-11T10:09:34.263Z,99.90
2022-10-11T10:12:13.305Z,99.90
2022-10-11T10:14:41.392Z,99.90
2022-10-11T10:17:17.432Z,99.90
2022-10-11T10:19:53.166Z,99.90
2022-10-11T10:22:28.069Z,99.90
2022-10-11T10:24:56.788Z,99.90
2022-10-11T10:27:32.186Z,99.90
2022-10-11T10:30:08.292Z,99.90
2022-10-11T10:32:50.940Z,99.90
2022-10-11T10:35:41.396Z,99.90
2022-10-11T10:38:12.248Z,99.90
2022-10-11T10:40:50.049Z,99.90
2022-10-11T10:43:20.431Z,99.90
2022-10-11T10:45:59.268Z,99.90
2022-10-11T10:49:41.215Z,99.90
2022-10-11T10:52:08.479Z,99.90
2022-10-11T10:55:03.714Z,99.90
2022-10-11T10:57:52.083Z,99.90
2022-10-11T11:00:24.610Z,99.90
2022-10-11T11:03:02.470Z,99.90
2022-10-11T11:05:45.636Z,99.90
2022-10-11T11:08:40.616Z,99.90
2022-10-11T11:11:35.948Z,99.90
2022-10-11T11:14:21.755Z,99.90
2022-10-11T11:16:57.547Z,99.90
2022-10-11T11:19:50.510Z,99.90
2022-10-11T11:22:35.941Z,99.90
2022-10-11T11:25:24.580Z,99.90
2022-10-11T11:28:06.809Z,99.90
2022-10-11T11:30:56.066Z,99.90
2022-10-11T11:33:25.650Z,99.90
2022-10-11T11:35:55.695Z,99.90
2022-10-11T11:38:51.088Z,99.90
2022-10-11T11:41:23.821Z,99.90
2022-10-11T11:44:16.969Z,99.90
2022-10-11T11:46:55.124Z,99.90
2022-10-11T11:49:30.904Z,99.90
2022-10-11T11:51:59.717Z,99.90
2022-10-11T11:54:44.085Z,99.90
2022-10-11T11:57:25.353Z,99.90
2022-10-11T12:00:12.890Z,99.90
2022-10-11T12:03:20.225Z,99.90
2022-10-11T12:06:19.813Z,99.90
2022-10-11T12:08:49.426Z,99.90
2022-10-11T12:11:27.810Z,99.90
2022-10-11T12:14:16.389Z,99.90
2022-10-11T12:17:05.430Z,99.90
2022-10-11T12:19:32.418Z,99.90
2022-10-11T12:22:31.935Z,99.90
2022-10-11T12:25:21.509Z,99.90
2022-10-11T12:28:30.078Z,99.90
2022-10-11T12:31:05.326Z,99.90
2022-10-11T12:33:32.933Z,99.90
2022-10-11T12:36:23.628Z,99.90
2022-10-11T12:39:33.867Z,99.90
2022-10-11T12:42:19.115Z,99.90
2022-10-11T12:45:14.943Z,99.90
2022-10-11T12:47:51.688Z,99.90
2022-10-11T12:50:34.697Z,99.90
2022-10-11T12:53:35.326Z,99.90
2022-10-11T12:56:15.872Z,99.90
2022-10-11T12:58:48.084Z,97.80
2022-10-11T13:01:23.794Z,96.50
2022-10-11T13:04:04.829Z,95.70
2022-10-11T13:06:46.304Z,94.10
2022-10-11T13:09:17.717Z,93.10
2022-10-11T13:11:53.986Z,92.20
2022-10-11T13:14:23.839Z,92.10
2022-10-11T13:17:16.847Z,92.40
2022-10-11T13:19:43.942Z,84.40
2022-10-11T13:22:20.938Z,90.10
2022-10-11T13:24:47.965Z,89.30
2022-10-11T13:27:24.058Z,89.50
2022-10-11T13:29:53.595Z,82.10
2022-10-11T13:32:23.854Z,86.90
2022-10-11T13:37:30.093Z,80.70
2022-10-11T13:39:57.709Z,79.60
2022-10-11T13:42:29.778Z,78.30
2022-10-11T13:44:58.086Z,82.20
2022-10-11T13:47:30.762Z,83.50
2022-10-11T13:50:02.694Z,80.40
2022-10-11T13:52:29.703Z,80.20
2022-10-11T13:55:21.855Z,81.50
2022-10-11T13:57:51.918Z,79.30
2022-10-11T14:00:25.298Z,78.60
2022-10-11T14:03:01.067Z,79.10
2022-10-11T14:05:29.816Z,80.00
2022-10-11T14:08:19.568Z,76.00
2022-10-11T14:10:47.734Z,74.80
2022-10-11T14:13:34.295Z,74.40
2022-10-11T14:16:08.366Z,72.10
2022-10-11T14:18:41.649Z,72.10
2022-10-11T14:21:21.392Z,72.50
2022-10-11T14:23:55.600Z,70.70
2022-10-11T14:26:24.088Z,70.20
2022-10-11T14:28:58.996Z,74.20
2022-10-11T14:31:26.812Z,76.50
2022-10-11T14:33:55.020Z,79.40
2022-10-11T14:36:23.188Z,79.40
2022-10-11T14:38:50.853Z,81.20
2022-10-11T14:41:18.363Z,84.00
2022-10-11T14:43:45.194Z,83.80
2022-10-11T14:46:24.604Z,83.00
2022-10-11T14:48:55.342Z,83.50
2022-10-11T14:51:27.519Z,84.10
2022-10-11T14:53:54.454Z,86.20
2022-10-11T14:56:21.918Z,85.60
2022-10-11T14:58:49.628Z,85.60
2022-10-11T15:01:17.413Z,86.40
2022-10-11T15:03:44.862Z,87.60
2022-10-11T15:06:24.328Z,88.80
2022-10-11T15:08:51.373Z,90.00
2022-10-11T15:11:19.881Z,90.50
2022-10-11T15:13:47.348Z,91.00
2022-10-11T15:16:17.029Z,91.70
2022-10-11T15:18:44.159Z,92.30
2022-10-11T15:21:14.693Z,92.80
2022-10-11T15:23:41.551Z,93.40
2022-10-11T15:26:14.031Z,93.60
2022-10-11T15:28:41.078Z,94.20
2022-10-11T15:31:09.440Z,94.60
2022-10-11T15:33:36.594Z,95.00
2022-10-11T15:36:04.530Z,95.60
2022-10-11T15:38:32.012Z,95.60
2022-10-11T15:41:00.105Z,96.00
2022-10-11T15:43:30.119Z,96.30
2022-10-11T15:45:58.167Z,97.10
2022-10-11T15:48:26.858Z,97.20
2022-10-11T15:50:54.692Z,97.30
2022-10-11T15:53:26.301Z,97.90
2022-10-11T15:55:54.957Z,98.10
2022-10-11T15:58:33.899Z,98.40
2022-10-11T16:01:05.927Z,98.90
2022-10-11T16:03:33.811Z,99.10
2022-10-11T16:06:04.882Z,99.20
2022-10-11T16:08:32.790Z,99.30
2022-10-11T16:10:59.967Z,99.50
2022-10-11T16:13:26.836Z,99.90
2022-10-11T16:15:54.065Z,99.90
2022-10-11T16:18:22.236Z,99.90
2022-10-11T16:20:52.036Z,99.90
2022-10-11T16:23:21.898Z,99.90
2022-10-11T16:26:00.931Z,99.90
2022-10-11T16:28:28.838Z,99.90
2022-10-11T16:30:56.207Z,99.90
2022-10-11T16:33:26.007Z,99.90
2022-10-11T16:35:52.879Z,99.90
2022-10-11T16:38:19.758Z,99.90
2022-10-11T16:40:46.802Z,99.90
2022-10-11T16:43:13.608Z,99.90
2022-10-11T16:45:40.453Z,99.90
2022-10-11T16:48:07.300Z,99.90
2022-10-11T16:50:39.074Z,99.90
2022-10-11T16:53:06.513Z,99.90
2022-10-11T16:55:33.379Z,99.90
2022-10-11T16:58:00.329Z,99.90
2022-10-11T17:00:27.230Z,99.90
2022-10-11T17:02:54.162Z,99.90
2022-10-11T17:05:21.147Z,99.90
2022-10-11T17:07:48.007Z,99.90
2022-10-11T17:10:14.949Z,99.90
2022-10-11T17:12:45.428Z,99.90
2022-10-11T17:15:16.221Z,99.90
2022-10-11T17:17:43.239Z,99.90
2022-10-11T17:20:10.159Z,99.90
2022-10-11T17:22:36.939Z,99.90
2022-10-11T17:25:03.985Z,99.90
2022-10-11T17:27:31.249Z,99.90
2022-10-11T17:29:58.103Z,99.90
2022-10-11T17:32:24.906Z,99.90
2022-10-11T17:34:52.167Z,99.90
2022-10-11T17:37:19.064Z,99.90
2022-10-11T17:39:46.616Z,99.90
2022-10-11T17:42:13.500Z,99.90
2022-10-11T17:44:40.347Z,99.90
2022-10-11T17:47:07.207Z,99.90
2022-10-11T17:49:33.998Z,99.90
2022-10-11T17:52:00.977Z,99.90
2022-10-11T17:54:27.952Z,99.90
2022-10-11T17:56:55.117Z,99.90
2022-10-11T17:59:22.918Z,99.90
2022-10-11T18:01:50.488Z,99.90
2022-10-11T18:04:19.437Z,99.90
2022-10-11T18:06:47.481Z,99.90
2022-10-11T18:09:17.135Z,99.90
2022-10-11T18:11:44.490Z,99.90
2022-10-11T18:14:11.540Z,99.90
2022-10-11T18:16:38.973Z,99.90
2022-10-11T18:19:08.905Z,99.90
2022-10-11T18:21:37.668Z,99.90
2022-10-11T18:24:15.182Z,99.90
2022-10-11T18:26:42.963Z,99.90
2022-10-11T18:29:10.852Z,99.90
2022-10-11T18:31:37.719Z,99.90
2022-10-11T18:34:05.832Z,99.90
2022-10-11T18:36:33.393Z,99.90
2022-10-11T18:39:02.839Z,99.90
2022-10-11T18:41:31.861Z,99.90
2022-10-11T18:44:01.956Z,99.90
2022-10-11T18:46:29.795Z,99.90
2022-10-11T18:48:58.345Z,99.90
2022-10-11T18:51:38.755Z,99.90
2022-10-11T18:54:07.516Z,99.90
2022-10-11T18:56:37.965Z,99.90
2022-10-11T18:59:05.994Z,99.90
2022-10-11T19:01:35.978Z,99.90
2022-10-11T19:04:04.793Z,99.90
2022-10-11T19:06:36.444Z,99.90
2022-10-11T19:09:15.166Z,99.90
2022-10-11T19:11:42.117Z,99.90
2022-10-11T19:14:14.841Z,99.90
2022-10-11T19:16:45.569Z,99.90
2022-10-11T19:19:13.292Z,99.90
2022-10-11T19:21:40.673Z,99.90
2022-10-11T19:24:07.851Z,99.90
2022-10-11T19:26:40.006Z,99.90
2022-10-11T19:29:15.278Z,99.90
2022-10-11T19:31:46.983Z,99.90
2022-10-11T19:34:14.487Z,99.90
2022-10-11T19:36:44.583Z,99.90
2022-10-11T19:39:14.023Z,99.90
2022-10-11T19:41:41.776Z,99.90
2022-10-11T19:44:08.853Z,99.90
2022-10-11T19:46:50.884Z,99.90
2022-10-11T19:49:22.395Z,99.90
2022-10-11T19:51:49.473Z,99.90
2022-10-11T19:54:16.368Z,99.90
2022-10-11T19:56:44.793Z,99.90
2022-10-11T19:59:12.577Z,99.90
2022-10-11T20:01:41.314Z,99.90
2022-10-11T20:04:22.692Z,99.90
2022-10-11T20:06:57.997Z,99.90
2022-10-11T20:09:29.574Z,99.90
2022-10-11T20:11:57.460Z,99.90
2022-10-11T20:14:24.491Z,99.90
2022-10-11T20:16:51.628Z,99.90
2022-10-11T20:19:18.938Z,99.90
2022-10-11T20:21:45.810Z,99.90
2022-10-11T20:24:12.995Z,99.90
2022-10-11T20:26:40.039Z,99.90
2022-10-11T20:29:07.267Z,99.90
2022-10-11T20:31:38.216Z,99.90
2022-10-11T20:34:07.583Z,99.90
2022-10-11T20:36:36.273Z,99.90
2022-10-11T20:39:05.054Z,99.90
2022-10-11T20:41:40.117Z,99.90
2022-10-11T20:44:08.972Z,99.90
2022-10-11T20:46:38.530Z,99.90
2022-10-11T20:49:07.867Z,99.90
2022-10-11T20:51:36.449Z,99.90
2022-10-11T20:54:04.831Z,99.90
2022-10-11T20:56:32.255Z,99.90
2022-10-11T20:58:59.454Z,99.90
2022-10-11T21:01:29.342Z,99.90
2022-10-11T21:04:00.936Z,99.90
2022-10-11T21:06:29.246Z,99.90
2022-10-11T21:08:56.973Z,99.90
2022-10-11T21:11:32.889Z,99.90
2022-10-11T21:14:04.717Z,99.90
2022-10-11T21:16:33.136Z,99.90
2022-10-11T21:19:01.601Z,99.90
2022-10-11T21:21:29.644Z,99.90
2022-10-11T21:23:58.976Z,99.90
2022-10-11T21:26:27.381Z,99.90
2022-10-11T21:28:54.335Z,99.90
2022-10-11T21:31:22.200Z,99.90
2022-10-11T21:33:49.257Z,99.90
2022-10-11T21:36:18.978Z,99.90
2022-10-11T21:38:46.386Z,99.90
2022-10-11T21:41:21.616Z,99.90
2022-10-11T21:43:49.058Z,99.90
2022-10-11T21:46:21.851Z,99.90
2022-10-11T21:48:50.234Z,99.90
2022-10-11T21:51:23.659Z,99.90
2022-10-11T21:53:51.405Z,99.90
2022-10-11T21:56:18.430Z,99.90
2022-10-11T21:58:50.019Z,99.90
2022-10-11T22:01:18.642Z,99.90
2022-10-11T22:03:46.258Z,99.90
2022-10-11T22:06:13.754Z,99.90
2022-10-11T22:08:41.372Z,99.90
2022-10-11T22:11:11.414Z,99.90
2022-10-11T22:13:38.659Z,99.90
2022-10-11T22:16:07.041Z,99.90
2022-10-11T22:18:34.369Z,99.90
2022-10-11T22:21:15.973Z,99.90
2022-10-11T22:23:45.347Z,99.90
2022-10-11T22:26:18.150Z,99.90
2022-10-11T22:28:46.620Z,99.90
2022-10-11T22:31:14.561Z,99.90
2022-10-11T22:33:42.097Z,99.90
2022-10-11T22:36:12.023Z,99.90
2022-10-11T22:38:41.162Z,99.90
2022-10-11T22:41:08.479Z,99.90
2022-10-11T22:43:35.642Z,99.90
2022-10-11T22:46:02.821Z,99.90
2022-10-11T22:48:29.831Z,99.90
2022-10-11T22:50:56.756Z,99.90
2022-10-11T22:53:23.572Z,99.90
2022-10-11T22:55:50.945Z,99.90
2022-10-11T22:58:17.864Z,99.90
2022-10-11T23:00:44.809Z,99.90
2022-10-11T23:03:16.240Z,99.90
2022-10-11T23:05:43.072Z,99.90
2022-10-11T23:08:10.350Z,99.90
2022-10-11T23:10:40.607Z,99.90
2022-10-11T23:13:07.493Z,99.90
2022-10-11T23:15:34.548Z,99.90
2022-10-11T23:18:01.450Z,99.90
2022-10-11T23:20:28.228Z,99.90
2022-10-11T23:22:55.038Z,99.90
2022-10-11T23:25:21.801Z,99.90
2022-10-11T23:27:48.596Z,99.90
2022-10-11T23:30:15.638Z,99.90
2022-10-11T23:32:42.590Z,99.90
2022-10-11T23:35:09.636Z,99.90
2022-10-11T23:37:36.577Z,99.90
2022-10-11T23:40:04.540Z,99.90
2022-10-11T23:42:31.325Z,99.90
2022-10-11T23:44:58.112Z,99.90
2022-10-11T23:47:24.938Z,99.90
2022-10-11T23:49:51.949Z,99.90
2022-10-11T23:52:18.895Z,99.90
2022-10-11T23:54:45.740Z,99.90
2022-10-11T23:57:12.651Z,99.90
2022-10-11T23:59:39.436Z,99.90
